createdAt,value
2023-03-04T00:01:21.190Z,84.30
2023-03-04T00:03:48.146Z,84.30
2023-03-04T00:06:15.094Z,84.40
2023-03-04T00:08:42.339Z,84.40
2023-03-04T00:11:09.226Z,84.40
2023-03-04T00:13:36.178Z,84.40
2023-03-04T00:16:03.210Z,84.50
2023-03-04T00:18:30.124Z,84.50
2023-03-04T00:20:57.409Z,84.50
2023-03-04T00:23:24.478Z,85.10
2023-03-04T00:25:51.397Z,84.60
2023-03-04T00:28:18.709Z,84.60
2023-03-04T00:30:45.856Z,85.20
2023-03-04T00:33:12.916Z,84.60
2023-03-04T00:35:40.263Z,84.70
2023-03-04T00:38:12.424Z,84.60
2023-03-04T00:40:39.359Z,84.70
2023-03-04T00:43:06.275Z,84.70
2023-03-04T00:45:33.544Z,84.80
2023-03-04T00:48:00.476Z,84.80
2023-03-04T00:50:27.506Z,84.80
2023-03-04T00:52:54.435Z,84.70
2023-03-04T00:55:21.690Z,84.70
2023-03-04T00:57:48.651Z,84.80
2023-03-04T01:00:16.104Z,84.70
2023-03-04T01:02:43.209Z,84.80
2023-03-04T01:05:10.893Z,84.80
2023-03-04T01:07:37.880Z,84.80
2023-03-04T01:10:07.351Z,84.80
2023-03-04T01:12:34.339Z,84.80
2023-03-04T01:15:01.779Z,84.80
2023-03-04T01:17:30.246Z,84.90
2023-03-04T01:19:57.508Z,84.90
2023-03-04T01:22:24.531Z,85.00
2023-03-04T01:24:51.510Z,85.00
2023-03-04T01:27:18.707Z,85.00
2023-03-04T01:29:45.745Z,85.20
2023-03-04T01:32:12.885Z,85.20
2023-03-04T01:34:40.179Z,85.20
2023-03-04T01:37:07.167Z,85.20
2023-03-04T01:39:34.170Z,85.20
2023-03-04T01:42:01.199Z,85.30
2023-03-04T01:44:31.405Z,85.30
2023-03-04T01:46:58.622Z,85.30
2023-03-04T01:49:25.728Z,85.70
2023-03-04T01:51:54.797Z,85.50
2023-03-04T01:54:23.293Z,85.50
2023-03-04T01:56:52.662Z,85.50
2023-03-04T01:59:22.186Z,85.50
2023-03-04T02:01:58.609Z,85.50
2023-03-04T02:04:32.833Z,85.50
2023-03-04T02:07:01.500Z,85.60
2023-03-04T02:09:30.031Z,85.60
2023-03-04T02:11:57.653Z,85.70
2023-03-04T02:14:24.802Z,85.70
2023-03-04T02:16:52.408Z,86.30
2023-03-04T02:19:34.403Z,85.80
2023-03-04T02:22:01.504Z,85.80
2023-03-04T02:24:47.638Z,85.80
2023-03-04T02:27:15.012Z,85.70
2023-03-04T02:29:41.979Z,85.80
2023-03-04T02:32:11.591Z,85.70
2023-03-04T02:34:41.091Z,85.60
2023-03-04T02:37:10.915Z,85.60
2023-03-04T02:39:43.555Z,85.50
2023-03-04T02:42:12.820Z,85.60
2023-03-04T02:44:46.538Z,85.60
2023-03-04T02:47:17.904Z,85.50
2023-03-04T02:49:46.524Z,85.40
2023-03-04T02:52:18.051Z,85.40
2023-03-04T02:54:47.174Z,85.30
2023-03-04T02:57:15.050Z,85.30
2023-03-04T02:59:45.112Z,85.30
2023-03-04T03:02:17.419Z,85.20
2023-03-04T03:04:44.533Z,85.20
2023-03-04T03:07:14.191Z,85.20
2023-03-04T03:09:41.966Z,85.20
2023-03-04T03:12:08.985Z,85.20
2023-03-04T03:14:36.022Z,85.20
2023-03-04T03:17:04.708Z,85.90
2023-03-04T03:19:32.210Z,85.30
2023-03-04T03:22:01.025Z,85.30
2023-03-04T03:24:28.134Z,85.40
2023-03-04T03:26:56.821Z,85.30
2023-03-04T03:29:24.525Z,85.40
2023-03-04T03:31:51.505Z,85.50
2023-03-04T03:34:20.760Z,85.40
2023-03-04T03:36:48.688Z,85.50
2023-03-04T03:39:15.775Z,85.40
2023-03-04T03:41:42.904Z,85.50
2023-03-04T03:44:12.951Z,85.50
2023-03-04T03:46:39.852Z,85.40
2023-03-04T03:49:06.921Z,85.50
2023-03-04T03:51:33.967Z,85.60
2023-03-04T03:54:01.031Z,85.60
2023-03-04T03:56:27.952Z,85.70
2023-03-04T03:58:54.886Z,85.70
2023-03-04T04:01:21.779Z,85.80
2023-03-04T04:03:48.644Z,85.90
2023-03-04T04:06:15.651Z,85.90
2023-03-04T04:08:42.616Z,85.90
2023-03-04T04:11:11.160Z,86.00
2023-03-04T04:13:39.367Z,85.90
2023-03-04T04:16:07.062Z,85.90
2023-03-04T04:18:34.077Z,85.90
2023-03-04T04:21:01.091Z,86.00
2023-03-04T04:23:27.988Z,86.00
2023-03-04T04:25:58.755Z,86.00
2023-03-04T04:28:25.763Z,86.00
2023-03-04T04:30:53.145Z,86.00
2023-03-04T04:33:20.253Z,86.00
2023-03-04T04:35:47.300Z,86.60
2023-03-04T04:38:14.301Z,86.00
2023-03-04T04:40:43.161Z,86.10
2023-03-04T04:43:10.237Z,86.10
2023-03-04T04:45:37.308Z,86.20
2023-03-04T04:48:04.391Z,86.20
2023-03-04T04:50:32.938Z,86.20
2023-03-04T04:53:00.314Z,86.20
2023-03-04T04:55:28.373Z,86.20
2023-03-04T04:57:55.328Z,86.30
2023-03-04T05:00:22.384Z,86.30
2023-03-04T05:02:49.416Z,86.30
2023-03-04T05:05:16.395Z,86.30
2023-03-04T05:07:43.516Z,86.40
2023-03-04T05:10:11.200Z,86.50
2023-03-04T05:12:38.369Z,86.50
2023-03-04T05:15:05.805Z,86.60
2023-03-04T05:17:33.123Z,86.60
2023-03-04T05:20:00.276Z,86.80
2023-03-04T05:22:27.222Z,86.80
2023-03-04T05:24:54.419Z,86.90
2023-03-04T05:27:21.423Z,87.00
2023-03-04T05:29:48.398Z,87.10
2023-03-04T05:32:15.562Z,87.10
2023-03-04T05:34:42.584Z,87.20
2023-03-04T05:37:09.541Z,87.20
2023-03-04T05:39:36.462Z,87.30
2023-03-04T05:42:03.505Z,87.30
2023-03-04T05:44:30.405Z,87.30
2023-03-04T05:46:57.610Z,87.40
2023-03-04T05:49:24.569Z,87.50
2023-03-04T05:51:51.532Z,87.60
2023-03-04T05:54:18.545Z,87.70
2023-03-04T05:56:45.980Z,87.70
2023-03-04T05:59:13.032Z,87.70
2023-03-04T06:01:39.930Z,87.80
2023-03-04T06:04:07.071Z,87.70
2023-03-04T06:06:34.053Z,87.80
2023-03-04T06:09:01.304Z,87.80
2023-03-04T06:11:28.202Z,87.80
2023-03-04T06:13:55.244Z,87.90
2023-03-04T06:16:22.250Z,87.90
2023-03-04T06:18:49.228Z,87.90
2023-03-04T06:21:16.201Z,87.90
2023-03-04T06:23:44.674Z,87.80
2023-03-04T06:26:15.721Z,87.90
2023-03-04T06:28:44.149Z,88.00
2023-03-04T06:31:11.198Z,88.00
2023-03-04T06:33:38.201Z,88.00
2023-03-04T06:36:05.507Z,88.10
2023-03-04T06:38:32.632Z,88.10
2023-03-04T06:41:08.252Z,88.10
2023-03-04T06:43:35.779Z,88.20
2023-03-04T06:46:02.877Z,88.30
2023-03-04T06:48:29.780Z,88.40
2023-03-04T06:50:57.085Z,88.50
2023-03-04T06:53:24.242Z,88.50
2023-03-04T06:55:51.279Z,89.10
2023-03-04T06:58:18.356Z,88.60
2023-03-04T07:00:45.391Z,88.60
2023-03-04T07:03:13.807Z,88.60
2023-03-04T07:05:40.930Z,88.60
2023-03-04T07:08:08.116Z,88.60
2023-03-04T07:10:35.092Z,88.60
2023-03-04T07:13:02.372Z,89.30
2023-03-04T07:15:29.756Z,88.70
2023-03-04T07:17:56.712Z,88.70
2023-03-04T07:20:23.630Z,88.70
2023-03-04T07:22:50.637Z,88.80
2023-03-04T07:25:18.260Z,88.90
2023-03-04T07:27:45.343Z,89.20
2023-03-04T07:30:12.741Z,89.30
2023-03-04T07:32:40.111Z,89.50
2023-03-04T07:35:07.728Z,89.60
2023-03-04T07:37:34.938Z,89.70
2023-03-04T07:40:02.074Z,89.70
2023-03-04T07:42:29.059Z,89.60
2023-03-04T07:45:05.755Z,89.50
2023-03-04T07:47:32.673Z,89.60
2023-03-04T07:49:59.728Z,89.50
2023-03-04T07:52:26.719Z,89.50
2023-03-04T07:54:53.636Z,89.40
2023-03-04T07:57:20.841Z,89.40
2023-03-04T07:59:47.849Z,89.40
2023-03-04T08:02:15.698Z,89.30
2023-03-04T08:04:42.698Z,89.20
2023-03-04T08:07:09.748Z,89.10
2023-03-04T08:09:36.760Z,89.00
2023-03-04T08:12:03.873Z,88.90
2023-03-04T08:14:30.863Z,88.80
2023-03-04T08:16:57.770Z,88.70
2023-03-04T08:19:26.021Z,88.60
2023-03-04T08:21:53.212Z,88.50
2023-03-04T08:24:20.128Z,88.60
2023-03-04T08:26:49.188Z,89.00
2023-03-04T08:29:21.444Z,89.10
2023-03-04T08:31:49.718Z,89.20
2023-03-04T08:34:17.852Z,89.30
2023-03-04T08:36:45.460Z,89.40
2023-03-04T08:39:14.297Z,89.50
2023-03-04T08:41:41.632Z,89.70
2023-03-04T08:44:10.628Z,89.70
2023-03-04T08:46:52.871Z,89.70
2023-03-04T08:49:19.879Z,89.70
2023-03-04T08:51:46.876Z,90.10
2023-03-04T08:54:13.815Z,89.70
2023-03-04T08:56:41.899Z,89.50
2023-03-04T08:59:08.968Z,89.50
2023-03-04T09:01:36.007Z,89.40
2023-03-04T09:04:03.094Z,89.40
2023-03-04T09:06:30.171Z,89.60
2023-03-04T09:08:57.520Z,89.90
2023-03-04T09:11:24.617Z,90.10
2023-03-04T09:13:51.959Z,90.20
2023-03-04T09:16:19.303Z,90.40
2023-03-04T09:18:46.688Z,90.50
2023-03-04T09:21:13.656Z,90.50
2023-03-04T09:23:43.819Z,90.60
2023-03-04T09:26:30.051Z,90.70
2023-03-04T09:28:59.401Z,90.90
2023-03-04T09:31:27.628Z,91.10
2023-03-04T09:33:56.512Z,91.20
2023-03-04T09:36:24.420Z,91.10
2023-03-04T09:38:51.987Z,91.20
2023-03-04T09:41:26.618Z,91.20
2023-03-04T09:43:58.355Z,91.20
2023-03-04T09:46:39.095Z,91.10
2023-03-04T09:49:07.488Z,91.20
2023-03-04T09:51:34.864Z,91.40
2023-03-04T09:54:12.390Z,91.40
2023-03-04T09:56:44.946Z,91.50
2023-03-04T09:59:17.916Z,91.50
2023-03-04T10:01:53.785Z,91.70
2023-03-04T10:04:40.079Z,91.70
2023-03-04T10:07:26.274Z,91.60
2023-03-04T10:10:03.097Z,91.50
2023-03-04T10:12:33.264Z,91.50
2023-03-04T10:15:44.597Z,91.50
2023-03-04T10:18:20.620Z,91.30
2023-03-04T10:21:02.411Z,91.30
2023-03-04T10:23:31.927Z,91.20
2023-03-04T10:26:08.837Z,91.20
2023-03-04T10:28:36.251Z,91.20
2023-03-04T10:31:32.201Z,91.40
2023-03-04T10:33:59.399Z,91.30
2023-03-04T10:36:26.343Z,91.50
2023-03-04T10:39:05.594Z,91.50
2023-03-04T10:41:33.422Z,91.60
2023-03-04T10:44:09.749Z,91.60
2023-03-04T10:46:41.414Z,91.70
2023-03-04T10:49:11.056Z,91.80
2023-03-04T10:51:50.400Z,91.80
2023-03-04T10:54:26.533Z,92.20
2023-03-04T10:57:56.896Z,91.80
2023-03-04T11:00:29.235Z,91.70
2023-03-04T11:03:29.852Z,91.70
2023-03-04T11:06:11.846Z,91.60
2023-03-04T11:08:42.706Z,91.50
2023-03-04T11:11:25.046Z,91.40
2023-03-04T11:13:57.890Z,91.40
2023-03-04T11:16:33.081Z,91.50
2023-03-04T11:19:13.433Z,91.40
2023-03-04T11:21:42.010Z,91.30
2023-03-04T11:24:28.111Z,91.30
2023-03-04T11:27:06.681Z,91.30
2023-03-04T11:29:43.719Z,91.20
2023-03-04T11:32:19.145Z,91.10
2023-03-04T11:35:15.215Z,91.10
2023-03-04T11:38:00.643Z,91.10
2023-03-04T11:41:14.259Z,90.90
2023-03-04T11:43:46.505Z,90.70
2023-03-04T11:46:36.776Z,90.60
2023-03-04T11:49:41.480Z,90.60
2023-03-04T11:52:31.658Z,90.60
2023-03-04T11:55:38.980Z,90.70
2023-03-04T11:58:34.060Z,90.80
2023-03-04T12:01:15.063Z,90.80
2023-03-04T12:04:07.040Z,90.80
2023-03-04T12:06:55.918Z,90.80
2023-03-04T12:09:28.790Z,90.80
2023-03-04T12:12:35.212Z,90.90
2023-03-04T12:15:06.988Z,90.90
2023-03-04T12:17:58.630Z,91.00
2023-03-04T12:20:34.417Z,91.00
2023-03-04T12:23:12.088Z,90.80
2023-03-04T12:25:48.180Z,90.60
2023-03-04T12:28:24.174Z,90.50
2023-03-04T12:31:07.830Z,90.30
2023-03-04T12:34:11.634Z,90.30
2023-03-04T12:36:53.527Z,90.40
2023-03-04T12:40:00.000Z,90.50
2023-03-04T12:42:47.300Z,90.60
2023-03-04T12:45:29.608Z,90.80
2023-03-04T12:48:07.083Z,91.00
2023-03-04T12:50:55.297Z,91.20
2023-03-04T12:53:45.464Z,91.30
2023-03-04T12:56:39.025Z,91.50
2023-03-04T12:59:07.971Z,91.50
2023-03-04T13:01:45.335Z,91.50
2023-03-04T13:04:23.299Z,91.40
2023-03-04T13:07:35.619Z,91.30
2023-03-04T13:10:10.802Z,91.20
2023-03-04T13:12:58.135Z,90.90
2023-03-04T13:15:25.150Z,90.80
2023-03-04T13:18:32.514Z,90.70
2023-03-04T13:21:14.836Z,90.40
2023-03-04T13:23:42.184Z,90.30
2023-03-04T13:26:18.313Z,90.20
2023-03-04T13:28:45.576Z,90.20
2023-03-04T13:31:27.152Z,90.40
2023-03-04T13:33:59.891Z,90.00
2023-03-04T13:36:45.346Z,89.90
2023-03-04T13:39:15.457Z,89.50
2023-03-04T13:41:54.181Z,89.20
2023-03-04T13:45:01.203Z,88.10
2023-03-04T13:47:40.630Z,87.80
2023-03-04T13:50:34.815Z,87.90
2023-03-04T13:53:31.369Z,88.00
2023-03-04T13:56:29.413Z,87.70
2023-03-04T13:59:08.567Z,88.00
2023-03-04T14:01:41.643Z,87.80
2023-03-04T14:04:21.593Z,87.80
2023-03-04T14:06:50.423Z,87.80
2023-03-04T14:09:25.054Z,87.40
2023-03-04T14:11:54.616Z,86.70
2023-03-04T14:14:29.582Z,87.40
2023-03-04T14:17:06.177Z,85.90
2023-03-04T14:19:38.620Z,86.30
2023-03-04T14:22:22.131Z,86.40
2023-03-04T14:25:01.993Z,86.40
2023-03-04T14:27:31.236Z,85.80
2023-03-04T14:30:00.150Z,85.60
2023-03-04T14:32:28.792Z,85.80
2023-03-04T14:35:06.318Z,85.20
2023-03-04T14:37:48.313Z,85.30
2023-03-04T14:40:22.602Z,85.00
2023-03-04T14:42:59.818Z,85.00
2023-03-04T14:45:27.388Z,85.10
2023-03-04T14:47:59.726Z,85.10
2023-03-04T14:50:26.752Z,85.60
2023-03-04T14:53:08.852Z,85.20
2023-03-04T14:55:35.897Z,85.10
2023-03-04T14:58:19.998Z,84.40
2023-03-04T15:00:48.091Z,83.90
2023-03-04T15:03:23.524Z,83.80
2023-03-04T15:05:52.961Z,83.90
2023-03-04T15:08:29.949Z,83.90
2023-03-04T15:11:02.684Z,83.70
2023-03-04T15:13:44.720Z,83.60
2023-03-04T15:16:14.823Z,83.10
2023-03-04T15:19:06.114Z,82.80
2023-03-04T15:21:36.866Z,83.00
2023-03-04T15:24:06.301Z,83.40
2023-03-04T15:26:37.752Z,83.60
2023-03-04T15:29:14.609Z,83.10
2023-03-04T15:31:42.147Z,83.00
2023-03-04T15:34:14.340Z,83.10
2023-03-04T15:36:44.126Z,83.20
2023-03-04T15:39:14.775Z,82.10
2023-03-04T15:41:42.035Z,82.10
2023-03-04T15:44:12.304Z,82.30
2023-03-04T15:46:39.388Z,82.40
2023-03-04T15:49:06.374Z,82.40
2023-03-04T15:51:33.483Z,82.40
2023-03-04T15:54:01.438Z,82.40
2023-03-04T15:56:33.929Z,82.40
2023-03-04T15:59:11.001Z,82.40
2023-03-04T16:01:38.389Z,82.50
2023-03-04T16:04:05.851Z,82.60
2023-03-04T16:06:33.324Z,82.50
2023-03-04T16:09:01.005Z,82.80
2023-03-04T16:11:30.389Z,83.00
2023-03-04T16:14:00.415Z,83.10
2023-03-04T16:16:27.528Z,83.20
2023-03-04T16:18:54.570Z,83.20
2023-03-04T16:21:25.137Z,83.40
2023-03-04T16:23:53.002Z,83.40
2023-03-04T16:26:22.266Z,83.50
2023-03-04T16:28:49.944Z,83.40
2023-03-04T16:31:18.467Z,83.40
2023-03-04T16:33:45.836Z,83.50
2023-03-04T16:36:26.641Z,83.60
2023-03-04T16:38:59.566Z,83.70
2023-03-04T16:41:30.652Z,83.70
2023-03-04T16:44:01.412Z,83.70
2023-03-04T16:46:30.097Z,83.70
2023-03-04T16:48:59.934Z,83.70
2023-03-04T16:51:28.530Z,83.70
2023-03-04T16:53:58.197Z,83.70
2023-03-04T16:56:25.761Z,83.70
2023-03-04T16:58:56.062Z,83.70
2023-03-04T17:01:27.091Z,83.70
2023-03-04T17:03:55.763Z,83.20
2023-03-04T17:06:23.614Z,83.40
2023-03-04T17:08:51.017Z,83.30
2023-03-04T17:11:20.770Z,83.60
2023-03-04T17:13:48.323Z,83.60
2023-03-04T17:16:15.955Z,83.80
2023-03-04T17:18:44.477Z,83.80
2023-03-04T17:21:18.585Z,84.00
2023-03-04T17:23:45.983Z,84.10
2023-03-04T17:26:13.566Z,84.30
2023-03-04T17:28:40.853Z,84.30
2023-03-04T17:31:16.973Z,84.40
2023-03-04T17:33:47.665Z,84.40
2023-03-04T17:36:16.454Z,84.50
2023-03-04T17:38:43.711Z,84.50
2023-03-04T17:41:17.108Z,84.60
2023-03-04T17:43:49.315Z,84.70
2023-03-04T17:46:19.727Z,84.70
2023-03-04T17:48:46.710Z,84.90
2023-03-04T17:51:13.796Z,85.00
2023-03-04T17:53:40.888Z,85.00
2023-03-04T17:56:17.298Z,85.10
2023-03-04T17:58:48.684Z,85.10
2023-03-04T18:01:19.442Z,85.30
2023-03-04T18:03:46.789Z,85.30
2023-03-04T18:06:27.562Z,85.30
2023-03-04T18:08:55.312Z,85.30
2023-03-04T18:11:24.067Z,85.30
2023-03-04T18:13:51.417Z,85.40
2023-03-04T18:16:23.534Z,85.50
2023-03-04T18:18:51.443Z,85.60
2023-03-04T18:21:19.908Z,85.60
2023-03-04T18:23:47.310Z,85.60
2023-03-04T18:26:14.522Z,85.70
2023-03-04T18:28:41.879Z,85.80
2023-03-04T18:31:10.461Z,85.80
2023-03-04T18:33:37.975Z,85.80
2023-03-04T18:36:08.309Z,85.90
2023-03-04T18:38:37.847Z,86.00
2023-03-04T18:41:08.426Z,86.00
2023-03-04T18:43:36.184Z,86.00
2023-03-04T18:46:44.477Z,86.10
2023-03-04T18:49:14.489Z,85.90
2023-03-04T18:51:42.234Z,86.00
2023-03-04T18:54:09.384Z,86.10
2023-03-04T18:56:41.796Z,86.20
2023-03-04T18:59:10.736Z,86.20
2023-03-04T19:01:37.991Z,86.40
2023-03-04T19:04:05.904Z,86.40
2023-03-04T19:06:33.930Z,86.30
2023-03-04T19:09:01.579Z,86.40
2023-03-04T19:11:31.710Z,86.50
2023-03-04T19:13:58.935Z,86.50
2023-03-04T19:16:27.307Z,86.60
2023-03-04T19:18:54.358Z,86.60
2023-03-04T19:21:21.369Z,86.70
2023-03-04T19:23:48.561Z,86.60
2023-03-04T19:26:15.795Z,86.70
2023-03-04T19:28:43.401Z,86.80
2023-03-04T19:31:11.765Z,86.90
2023-03-04T19:33:41.303Z,87.00
2023-03-04T19:36:09.581Z,87.00
2023-03-04T19:38:39.972Z,87.00
2023-03-04T19:41:15.853Z,87.10
2023-03-04T19:43:43.264Z,87.20
2023-03-04T19:46:11.068Z,87.20
2023-03-04T19:48:39.939Z,87.30
2023-03-04T19:51:19.279Z,87.40
2023-03-04T19:53:46.835Z,87.50
2023-03-04T19:56:14.010Z,87.70
2023-03-04T19:58:41.098Z,87.90
2023-03-04T20:01:18.969Z,88.10
2023-03-04T20:03:46.248Z,88.40
2023-03-04T20:06:16.546Z,88.40
2023-03-04T20:08:43.581Z,88.40
2023-03-04T20:11:16.738Z,88.40
2023-03-04T20:13:49.796Z,88.40
2023-03-04T20:16:17.499Z,88.40
2023-03-04T20:18:47.392Z,88.40
2023-03-04T20:21:14.668Z,88.40
2023-03-04T20:23:41.976Z,88.40
2023-03-04T20:26:09.068Z,88.50
2023-03-04T20:28:49.238Z,88.50
2023-03-04T20:31:23.101Z,88.60
2023-03-04T20:33:51.622Z,88.70
2023-03-04T20:36:21.503Z,88.80
2023-03-04T20:39:02.079Z,88.80
2023-03-04T20:41:30.867Z,88.80
2023-03-04T20:44:00.990Z,88.90
2023-03-04T20:46:42.006Z,89.00
2023-03-04T20:49:24.404Z,89.10
2023-03-04T20:51:53.390Z,89.80
2023-03-04T20:54:20.756Z,89.20
2023-03-04T20:56:51.708Z,89.30
2023-03-04T20:59:18.641Z,89.30
2023-03-04T21:01:48.107Z,89.30
2023-03-04T21:04:15.993Z,89.40
2023-03-04T21:06:45.120Z,89.30
2023-03-04T21:09:18.590Z,89.40
2023-03-04T21:11:46.516Z,89.40
2023-03-04T21:14:22.506Z,89.30
2023-03-04T21:16:51.681Z,89.30
2023-03-04T21:19:33.207Z,89.40
2023-03-04T21:22:03.612Z,89.40
2023-03-04T21:24:35.093Z,89.60
2023-03-04T21:27:04.791Z,89.60
2023-03-04T21:29:32.067Z,89.70
2023-03-04T21:32:20.929Z,89.80
2023-03-04T21:34:52.178Z,90.00
2023-03-04T21:37:21.233Z,90.10
2023-03-04T21:39:48.637Z,90.20
2023-03-04T21:42:16.075Z,90.20
2023-03-04T21:44:51.581Z,90.20
2023-03-04T21:47:20.912Z,90.30
2023-03-04T21:49:48.753Z,90.30
2023-03-04T21:52:16.974Z,90.30
2023-03-04T21:54:44.474Z,90.40
2023-03-04T21:57:14.829Z,90.50
2023-03-04T21:59:48.621Z,90.50
2023-03-04T22:02:19.545Z,90.60
2023-03-04T22:04:47.574Z,90.60
2023-03-04T22:07:14.669Z,90.70
2023-03-04T22:09:43.796Z,90.70
2023-03-04T22:12:10.941Z,90.70
2023-03-04T22:14:38.270Z,90.70
2023-03-04T22:17:05.617Z,91.00
2023-03-04T22:19:35.747Z,90.70
2023-03-04T22:22:02.883Z,90.80
2023-03-04T22:24:29.994Z,90.70
2023-03-04T22:26:57.684Z,90.70
2023-03-04T22:29:24.705Z,90.60
2023-03-04T22:31:51.964Z,90.60
2023-03-04T22:34:19.306Z,90.60
2023-03-04T22:36:47.006Z,90.60
2023-03-04T22:39:19.366Z,90.60
2023-03-04T22:41:46.707Z,90.60
2023-03-04T22:44:14.163Z,90.60
2023-03-04T22:46:41.344Z,90.60
2023-03-04T22:49:11.529Z,90.60
2023-03-04T22:51:43.110Z,90.60
2023-03-04T22:54:15.704Z,90.70
2023-03-04T22:56:43.104Z,90.70
2023-03-04T22:59:10.426Z,90.70
2023-03-04T23:01:37.487Z,90.80
2023-03-04T23:04:04.844Z,90.80
2023-03-04T23:06:32.250Z,90.80
2023-03-04T23:09:00.211Z,90.80
2023-03-04T23:11:32.893Z,90.80
2023-03-04T23:14:17.115Z,90.80
2023-03-04T23:16:53.349Z,90.80
2023-03-04T23:19:20.427Z,90.80
2023-03-04T23:21:47.873Z,90.80
2023-03-04T23:24:14.951Z,90.80
2023-03-04T23:26:43.573Z,90.70
2023-03-04T23:29:14.260Z,90.70
2023-03-04T23:31:42.670Z,90.80
2023-03-04T23:34:11.261Z,90.70
2023-03-04T23:36:38.425Z,90.80
2023-03-04T23:39:07.111Z,90.80
2023-03-04T23:41:35.611Z,90.80
2023-03-04T23:44:02.896Z,90.80
2023-03-04T23:46:30.082Z,90.80
2023-03-04T23:48:57.690Z,90.80
2023-03-04T23:51:27.851Z,90.90
2023-03-04T23:53:55.328Z,90.90
2023-03-04T23:56:25.167Z,90.90
2023-03-04T23:58:52.241Z,90.90
